Time;durP1;ratioP1;P1;durP2;ratioP2;P2;SDS_P1;SDS_P2;PMS_P1;PMS_P2;Temp;Humidity;BMP_temperature;BMP_pressure;BME280_temperature;BME280_humidity;BME280_pressure;Samples;Min_cycle;Max_cycle;Signal;HPM_P1;HPM_P2
2021/10/20 00:01:39;;;;;;;6.10;4.70;;;13.50;99.90;;;;;;5060900;28;20316;-73
2021/10/20 00:04:07;;;;;;;7.33;5.53;;;13.50;99.90;;;;;;5051616;28;20679;-73
2021/10/20 00:06:34;;;;;;;7.03;5.50;;;13.50;99.90;;;;;;5065989;28;20205;-74
2021/10/20 00:09:02;;;;;;;7.53;5.43;;;13.50;99.90;;;;;;5052768;28;20580;-74
2021/10/20 00:11:29;;;;;;;6.77;5.47;;;13.50;99.90;;;;;;5063980;28;20296;-74
2021/10/20 00:13:56;;;;;;;5.20;4.70;;;13.40;99.90;;;;;;5057030;28;20195;-74
2021/10/20 00:16:24;;;;;;;7.37;5.30;;;13.50;99.90;;;;;;5044344;28;20551;-74
2021/10/20 00:18:53;;;;;;;6.87;5.00;;;13.50;99.90;;;;;;5051225;28;20734;-74
2021/10/20 00:21:24;;;;;;;7.37;5.03;;;13.50;99.90;;;;;;5042715;28;20206;-74
2021/10/20 00:23:52;;;;;;;6.47;5.13;;;13.50;99.90;;;;;;5046062;28;20673;-74
2021/10/20 00:26:19;;;;;;;8.37;5.70;;;13.50;99.90;;;;;;5052105;28;20234;-74
2021/10/20 00:28:46;;;;;;;7.80;5.63;;;13.50;99.90;;;;;;5038015;28;20298;-74
2021/10/20 00:31:13;;;;;;;7.40;5.10;;;13.50;99.90;;;;;;5031863;28;20251;-73
2021/10/20 00:33:40;;;;;;;8.37;6.07;;;13.50;99.90;;;;;;5068891;28;20205;-73
2021/10/20 00:36:08;;;;;;;8.40;5.90;;;13.50;99.90;;;;;;5042294;28;20195;-73
2021/10/20 00:38:35;;;;;;;7.33;5.57;;;13.50;99.90;;;;;;5051040;28;20237;-73
2021/10/20 00:41:03;;;;;;;6.90;5.20;;;13.50;99.90;;;;;;5050684;28;20668;-73
2021/10/20 00:43:30;;;;;;;7.30;5.20;;;13.50;99.90;;;;;;5042605;28;20657;-73
2021/10/20 00:45:57;;;;;;;6.93;5.13;;;13.50;99.90;;;;;;5065859;28;20276;-73
2021/10/20 00:48:24;;;;;;;5.50;4.73;;;13.50;99.90;;;;;;5047449;28;20603;-74
2021/10/20 00:50:51;;;;;;;5.67;4.93;;;13.50;99.90;;;;;;5059026;28;20290;-73
2021/10/20 00:53:20;;;;;;;7.90;5.07;;;13.60;99.90;;;;;;5056873;28;20234;-73
2021/10/20 00:55:47;;;;;;;9.73;6.20;;;13.60;99.90;;;;;;5049974;28;20285;-73
2021/10/20 00:58:15;;;;;;;10.10;6.47;;;13.60;99.90;;;;;;5058186;28;20282;-73
2021/10/20 01:00:42;;;;;;;7.50;5.43;;;13.60;99.90;;;;;;5047042;28;20271;-73
2021/10/20 01:03:09;;;;;;;10.37;6.10;;;13.60;99.90;;;;;;5050595;28;20205;-72
2021/10/20 01:05:36;;;;;;;6.77;5.37;;;13.60;99.90;;;;;;5056354;28;20541;-73
2021/10/20 01:08:03;;;;;;;7.60;5.57;;;13.70;99.90;;;;;;5061794;28;20282;-74
2021/10/20 01:10:32;;;;;;;6.60;5.47;;;13.70;99.90;;;;;;5064838;28;20280;-73
2021/10/20 01:12:59;;;;;;;6.90;4.90;;;13.70;99.90;;;;;;5048632;28;20219;-73
2021/10/20 01:15:28;;;;;;;6.50;5.10;;;13.70;99.90;;;;;;5044803;28;20209;-73
2021/10/20 01:17:55;;;;;;;6.77;4.67;;;13.70;99.90;;;;;;5051191;28;20201;-73
2021/10/20 01:20:24;;;;;;;9.23;5.43;;;13.80;99.90;;;;;;5035299;28;20204;-73
2021/10/20 01:22:53;;;;;;;6.27;4.70;;;13.80;99.90;;;;;;5031110;28;20199;-73
2021/10/20 01:25:20;;;;;;;6.40;4.83;;;13.80;99.90;;;;;;5032481;28;20328;-74
2021/10/20 01:27:47;;;;;;;6.63;5.27;;;13.90;99.90;;;;;;5031593;28;20667;-74
2021/10/20 01:30:15;;;;;;;6.67;5.30;;;13.90;99.90;;;;;;5066092;28;20228;-74
2021/10/20 01:32:42;;;;;;;6.70;4.80;;;13.90;99.90;;;;;;5048947;28;20696;-75
2021/10/20 01:35:10;;;;;;;5.57;4.70;;;13.90;99.90;;;;;;5055016;28;20202;-74
2021/10/20 01:37:37;;;;;;;6.97;5.00;;;13.90;99.90;;;;;;5042462;28;20262;-74
2021/10/20 01:40:08;;;;;;;7.00;5.67;;;13.90;99.90;;;;;;5064494;28;20191;-74
2021/10/20 01:42:36;;;;;;;5.97;4.83;;;13.90;99.90;;;;;;5040841;28;20205;-73
2021/10/20 01:45:05;;;;;;;6.20;5.23;;;13.90;99.90;;;;;;5045819;28;20240;-73
2021/10/20 01:47:32;;;;;;;6.50;5.53;;;13.90;99.90;;;;;;5061175;28;20191;-74
2021/10/20 01:49:59;;;;;;;5.40;4.83;;;13.90;99.90;;;;;;5058155;28;20600;-74
2021/10/20 01:52:26;;;;;;;7.30;5.57;;;13.90;99.90;;;;;;5046815;28;20248;-74
2021/10/20 01:54:53;;;;;;;6.80;5.43;;;13.90;99.90;;;;;;5042500;28;20291;-74
2021/10/20 01:57:21;;;;;;;6.47;5.80;;;13.90;99.90;;;;;;5072166;28;20225;-74
2021/10/20 01:59:48;;;;;;;5.93;5.00;;;13.90;99.90;;;;;;5058383;28;20232;-74
2021/10/20 02:02:19;;;;;;;5.90;5.30;;;13.90;99.90;;;;;;5043639;28;20301;-74
2021/10/20 02:04:47;;;;;;;8.53;5.50;;;13.90;99.90;;;;;;5032657;28;20212;-74
2021/10/20 02:07:14;;;;;;;7.23;5.70;;;13.90;99.90;;;;;;5068328;28;20205;-74
2021/10/20 02:09:41;;;;;;;6.13;4.93;;;13.80;99.90;;;;;;5047095;28;20202;-74
2021/10/20 02:12:09;;;;;;;5.57;4.60;;;13.80;99.90;;;;;;5042147;28;20232;-74
2021/10/20 02:14:38;;;;;;;6.23;5.07;;;13.80;99.90;;;;;;5066381;28;20813;-74
2021/10/20 02:17:06;;;;;;;5.63;4.97;;;13.80;99.90;;;;;;5049088;28;20207;-74
2021/10/20 02:19:34;;;;;;;5.57;4.83;;;13.90;99.90;;;;;;5032807;28;20560;-73
2021/10/20 02:22:03;;;;;;;5.30;4.10;;;13.90;99.90;;;;;;5050018;28;20609;-73
2021/10/20 02:24:30;;;;;;;5.43;4.40;;;13.90;99.90;;;;;;5040612;28;20219;-73
2021/10/20 02:26:57;;;;;;;4.30;3.90;;;13.90;99.90;;;;;;5038859;28;20196;-74
2021/10/20 02:29:24;;;;;;;5.77;4.53;;;14.00;99.90;;;;;;5052195;28;20294;-73
2021/10/20 02:31:52;;;;;;;4.33;3.93;;;14.00;99.90;;;;;;5051594;28;20206;-74
2021/10/20 02:34:21;;;;;;;4.00;3.70;;;14.00;99.90;;;;;;5052476;28;20203;-74
2021/10/20 02:36:48;;;;;;;4.77;4.27;;;14.00;99.90;;;;;;5070273;28;20207;-74
2021/10/20 02:39:15;;;;;;;4.57;4.10;;;14.10;99.90;;;;;;5065796;28;20679;-74
2021/10/20 02:41:42;;;;;;;4.40;4.00;;;14.10;99.90;;;;;;5039515;28;20209;-73
2021/10/20 02:44:10;;;;;;;5.03;4.53;;;14.10;99.90;;;;;;5040590;28;20213;-72
2021/10/20 02:46:37;;;;;;;4.93;4.47;;;14.10;99.90;;;;;;5072101;28;20284;-73
2021/10/20 02:49:06;;;;;;;4.60;4.20;;;14.10;99.90;;;;;;5054517;28;20546;-73
2021/10/20 02:51:33;;;;;;;4.30;3.90;;;14.10;99.90;;;;;;5070223;28;20207;-73
2021/10/20 02:54:00;;;;;;;5.20;3.90;;;14.20;99.90;;;;;;5046832;28;20671;-72
2021/10/20 02:56:28;;;;;;;4.13;3.70;;;14.20;99.90;;;;;;5057232;28;20247;-73
2021/10/20 02:58:56;;;;;;;3.57;3.27;;;14.30;99.90;;;;;;5046508;28;20309;-73
2021/10/20 03:01:23;;;;;;;4.33;3.93;;;14.30;99.90;;;;;;5071676;28;20206;-73
2021/10/20 03:03:50;;;;;;;3.73;3.43;;;14.30;99.90;;;;;;5060168;28;20558;-73
2021/10/20 03:06:18;;;;;;;4.17;3.73;;;14.30;99.90;;;;;;5053396;28;20212;-73
2021/10/20 03:08:46;;;;;;;5.97;4.43;;;14.40;99.90;;;;;;5051931;28;20212;-73
2021/10/20 03:11:13;;;;;;;6.77;4.70;;;14.40;99.90;;;;;;5042467;28;20204;-73
2021/10/20 03:13:40;;;;;;;7.47;4.57;;;14.40;99.90;;;;;;5048184;28;20227;-73
2021/10/20 03:16:08;;;;;;;4.23;3.83;;;14.40;99.90;;;;;;5053098;28;20204;-73
2021/10/20 03:18:35;;;;;;;3.97;3.57;;;14.50;99.90;;;;;;5057382;28;20189;-73
2021/10/20 03:21:02;;;;;;;3.83;3.53;;;14.50;99.90;;;;;;5062424;28;20643;-73
2021/10/20 03:23:31;;;;;;;4.40;4.00;;;14.50;99.90;;;;;;5062045;28;20193;-73
2021/10/20 03:25:58;;;;;;;5.30;4.00;;;14.50;99.90;;;;;;5041275;28;20200;-73
2021/10/20 03:28:25;;;;;;;3.97;3.57;;;14.50;99.90;;;;;;5038923;28;20328;-73
2021/10/20 03:30:52;;;;;;;4.43;4.03;;;14.50;99.90;;;;;;5067667;28;20202;-72
2021/10/20 03:33:19;;;;;;;4.60;4.20;;;14.50;99.90;;;;;;5061587;28;20642;-73
2021/10/20 03:35:46;;;;;;;5.53;4.10;;;14.60;99.90;;;;;;5042023;28;20576;-73
2021/10/20 03:38:13;;;;;;;6.87;4.37;;;14.60;99.90;;;;;;5052386;28;20209;-74
2021/10/20 03:40:42;;;;;;;5.50;4.87;;;14.60;99.90;;;;;;5064352;28;20281;-74
2021/10/20 03:43:09;;;;;;;6.77;5.37;;;14.60;99.90;;;;;;5039608;28;20208;-74
2021/10/20 03:45:36;;;;;;;8.43;6.07;;;14.60;99.90;;;;;;5064544;28;20554;-73
2021/10/20 03:48:03;;;;;;;6.63;5.20;;;14.60;99.90;;;;;;5049135;28;20754;-73
2021/10/20 03:50:30;;;;;;;5.40;4.90;;;14.70;99.90;;;;;;5047933;28;20579;-73
2021/10/20 03:52:57;;;;;;;4.70;4.30;;;14.60;99.90;;;;;;5041829;28;20243;-74
2021/10/20 03:55:24;;;;;;;5.80;5.20;;;14.70;99.90;;;;;;5061865;28;20208;-73
2021/10/20 03:57:52;;;;;;;4.97;4.47;;;14.70;99.90;;;;;;5037448;28;20206;-74
2021/10/20 04:00:19;;;;;;;6.83;5.30;;;14.70;99.90;;;;;;5051462;28;20675;-74
2021/10/20 04:02:47;;;;;;;5.30;4.80;;;14.70;99.90;;;;;;5046246;28;20198;-74
2021/10/20 04:05:16;;;;;;;5.47;4.57;;;14.70;99.90;;;;;;5041148;28;20547;-74
2021/10/20 04:07:44;;;;;;;6.27;4.77;;;14.80;99.90;;;;;;5048340;28;20823;-74
2021/10/20 04:10:13;;;;;;;5.73;5.20;;;14.80;99.90;;;;;;5044933;28;20193;-74
2021/10/20 04:12:41;;;;;;;8.13;5.70;;;14.80;99.90;;;;;;5057539;28;20661;-74
2021/10/20 04:15:10;;;;;;;6.03;4.80;;;14.90;99.90;;;;;;5050557;28;20656;-74
2021/10/20 04:17:38;;;;;;;7.80;6.00;;;14.90;99.90;;;;;;5057254;28;20203;-74
2021/10/20 04:20:06;;;;;;;10.53;6.70;;;14.90;99.90;;;;;;5066484;28;20226;-73
2021/10/20 04:22:33;;;;;;;9.50;6.17;;;14.90;99.90;;;;;;5050511;28;20371;-74
2021/10/20 04:25:01;;;;;;;11.00;6.80;;;14.90;99.90;;;;;;5039080;28;20193;-73
2021/10/20 04:27:28;;;;;;;9.70;6.57;;;15.00;99.90;;;;;;5044211;28;20700;-74
2021/10/20 04:29:57;;;;;;;10.73;7.40;;;15.00;99.90;;;;;;5050707;28;20215;-74
2021/10/20 04:32:25;;;;;;;7.97;6.07;;;15.00;99.90;;;;;;5039484;28;20288;-74
2021/10/20 04:34:52;;;;;;;10.80;6.50;;;15.00;99.90;;;;;;5048377;28;20221;-74
2021/10/20 04:37:24;;;;;;;5.67;4.97;;;15.00;99.90;;;;;;5051349;28;20740;-74
2021/10/20 04:39:52;;;;;;;5.13;4.60;;;15.00;99.90;;;;;;5034506;28;20574;-74
2021/10/20 04:42:20;;;;;;;6.77;5.53;;;15.10;99.90;;;;;;5062948;28;20652;-74
2021/10/20 04:44:47;;;;;;;7.63;6.00;;;15.10;99.90;;;;;;5067743;28;20203;-74
2021/10/20 04:47:14;;;;;;;6.90;5.10;;;15.10;99.90;;;;;;5037615;28;20327;-74
2021/10/20 04:49:43;;;;;;;6.27;5.13;;;15.10;99.90;;;;;;5068791;28;20200;-74
2021/10/20 04:52:11;;;;;;;5.97;4.93;;;15.10;99.90;;;;;;5048245;28;20204;-74
2021/10/20 04:54:38;;;;;;;6.40;5.20;;;15.20;99.90;;;;;;5053864;28;20328;-73
2021/10/20 04:57:05;;;;;;;7.77;4.87;;;15.20;99.90;;;;;;5065114;28;20190;-74
2021/10/20 04:59:33;;;;;;;5.50;4.67;;;15.10;99.90;;;;;;5067280;28;20537;-73
2021/10/20 05:02:01;;;;;;;9.93;6.10;;;15.20;99.90;;;;;;5033666;28;20197;-73
2021/10/20 05:04:28;;;;;;;8.93;6.23;;;15.20;99.90;;;;;;5050423;28;20669;-73
2021/10/20 05:06:56;;;;;;;5.50;4.67;;;15.20;99.90;;;;;;5046309;28;20206;-74
2021/10/20 05:09:24;;;;;;;4.50;4.10;;;15.20;99.90;;;;;;5039443;28;20211;-73
2021/10/20 05:11:51;;;;;;;5.43;4.93;;;15.20;99.90;;;;;;5063492;28;20271;-73
2021/10/20 05:14:18;;;;;;;8.87;5.13;;;15.20;99.90;;;;;;5063887;28;20704;-74
2021/10/20 05:16:45;;;;;;;5.80;5.23;;;15.20;99.90;;;;;;5037529;28;20283;-72
2021/10/20 05:19:12;;;;;;;6.13;5.40;;;15.20;99.90;;;;;;5068152;28;20202;-73
2021/10/20 05:21:40;;;;;;;7.00;5.67;;;15.30;99.90;;;;;;5045640;28;20296;-73
2021/10/20 05:24:09;;;;;;;8.17;6.67;;;15.30;99.90;;;;;;5065036;28;20193;-72
2021/10/20 05:26:36;;;;;;;5.77;5.20;;;15.30;99.90;;;;;;5068778;28;20270;-73
2021/10/20 05:29:03;;;;;;;7.43;6.33;;;15.30;99.90;;;;;;5060073;28;20193;-73
2021/10/20 05:31:30;;;;;;;6.83;5.97;;;15.30;99.90;;;;;;5062056;28;20193;-73
2021/10/20 05:33:57;;;;;;;6.83;5.30;;;15.30;99.90;;;;;;5067949;28;20312;-72
2021/10/20 05:36:24;;;;;;;6.37;5.50;;;15.40;99.90;;;;;;5050120;28;20295;-73
2021/10/20 05:38:50;;;;;;;5.90;5.30;;;15.40;99.90;;;;;;5037383;28;20225;-73
2021/10/20 05:41:19;;;;;;;9.07;6.13;;;15.40;99.90;;;;;;5065396;28;20207;-73
2021/10/20 05:43:47;;;;;;;5.53;4.83;;;15.40;99.90;;;;;;5037480;28;20206;-73
2021/10/20 05:46:14;;;;;;;5.97;5.10;;;15.50;99.90;;;;;;5036127;28;20207;-73
2021/10/20 05:48:41;;;;;;;5.90;5.30;;;15.50;99.90;;;;;;5050207;28;20211;-73
2021/10/20 05:51:08;;;;;;;7.57;5.97;;;15.50;99.90;;;;;;5063326;28;20205;-74
2021/10/20 05:53:35;;;;;;;6.73;5.77;;;15.50;99.90;;;;;;5045869;28;20336;-73
2021/10/20 05:56:03;;;;;;;5.37;4.87;;;15.50;99.90;;;;;;5051102;28;20201;-74
2021/10/20 05:58:31;;;;;;;8.07;6.03;;;15.50;99.90;;;;;;5045998;28;20598;-73
2021/10/20 06:00:58;;;;;;;6.13;5.53;;;15.50;99.90;;;;;;5070441;28;20220;-73
2021/10/20 06:03:25;;;;;;;6.73;5.43;;;15.60;99.90;;;;;;5054489;28;20683;-73
2021/10/20 06:05:52;;;;;;;6.67;5.80;;;15.60;99.90;;;;;;5064774;28;20594;-73
2021/10/20 06:08:19;;;;;;;6.67;5.17;;;15.60;99.90;;;;;;5041360;28;20201;-73
2021/10/20 06:10:46;;;;;;;5.93;5.13;;;15.60;99.90;;;;;;5062075;28;20210;-74
2021/10/20 06:13:13;;;;;;;7.77;5.80;;;15.70;99.90;;;;;;5043710;28;20296;-74
2021/10/20 06:15:42;;;;;;;8.07;5.27;;;15.70;99.90;;;;;;5055312;28;20566;-74
2021/10/20 06:18:09;;;;;;;5.87;4.97;;;15.70;99.90;;;;;;5065000;28;20669;-75
2021/10/20 06:20:36;;;;;;;6.10;5.10;;;15.70;99.90;;;;;;5048232;28;20194;-74
2021/10/20 06:23:03;;;;;;;5.83;5.07;;;15.80;99.90;;;;;;5060196;28;20199;-74
2021/10/20 06:25:31;;;;;;;6.07;5.07;;;15.80;99.90;;;;;;5050515;28;20201;-75
2021/10/20 06:27:58;;;;;;;5.37;4.67;;;15.80;99.90;;;;;;5042739;28;20496;-74
2021/10/20 06:30:25;;;;;;;5.77;4.83;;;15.90;99.90;;;;;;5045111;28;20216;-74
2021/10/20 06:32:54;;;;;;;5.57;4.83;;;15.90;99.90;;;;;;5064515;28;20195;-75
2021/10/20 06:35:21;;;;;;;5.40;4.23;;;15.90;99.90;;;;;;5061065;28;20535;-74
2021/10/20 06:37:51;;;;;;;7.00;5.30;;;15.90;99.90;;;;;;5048215;28;20910;-74
2021/10/20 06:40:18;;;;;;;8.80;5.97;;;15.90;99.90;;;;;;5046652;28;20292;-74
2021/10/20 06:42:45;;;;;;;7.27;5.70;;;16.00;99.90;;;;;;5057734;28;20842;-72
2021/10/20 06:45:12;;;;;;;9.77;6.93;;;16.00;99.90;;;;;;5065684;28;20193;-73
2021/10/20 06:47:40;;;;;;;7.87;5.80;;;16.00;99.90;;;;;;5066060;28;20201;-72
2021/10/20 06:50:10;;;;;;;7.00;5.73;;;16.00;99.90;;;;;;5055663;28;20225;-72
2021/10/20 06:52:37;;;;;;;7.83;5.97;;;16.10;99.90;;;;;;5061673;28;20726;-73
2021/10/20 06:55:05;;;;;;;7.97;6.00;;;16.10;99.90;;;;;;5067282;28;20216;-71
2021/10/20 06:57:32;;;;;;;6.73;5.87;;;16.10;99.90;;;;;;5040170;28;20208;-73
2021/10/20 06:59:59;;;;;;;8.23;6.27;;;16.20;99.90;;;;;;5044471;28;20212;-73
2021/10/20 07:02:26;;;;;;;7.57;6.30;;;16.20;99.90;;;;;;5046826;28;20561;-72
2021/10/20 07:04:53;;;;;;;6.20;5.63;;;16.30;99.90;;;;;;5039939;28;20199;-72
2021/10/20 07:07:21;;;;;;;7.37;5.90;;;16.30;99.90;;;;;;5063817;28;20201;-72
2021/10/20 07:09:48;;;;;;;8.10;5.50;;;16.40;99.90;;;;;;5043286;28;20289;-72
2021/10/20 07:12:15;;;;;;;5.90;5.30;;;16.50;99.90;;;;;;5056893;28;20201;-73
2021/10/20 07:14:42;;;;;;;6.20;5.60;;;16.60;99.90;;;;;;5065609;28;20226;-73
2021/10/20 07:17:10;;;;;;;8.80;5.87;;;16.60;99.90;;;;;;5060093;28;20189;-73
2021/10/20 07:19:38;;;;;;;9.87;6.30;;;16.70;99.90;;;;;;5045260;28;20209;-73
2021/10/20 07:22:06;;;;;;;7.37;6.00;;;16.80;99.90;;;;;;5066579;28;20189;-73
2021/10/20 07:24:35;;;;;;;7.53;5.87;;;16.80;99.90;;;;;;5053217;28;20277;-72
2021/10/20 07:27:03;;;;;;;6.97;6.00;;;16.80;99.90;;;;;;5046608;28;20213;-73
2021/10/20 07:29:30;;;;;;;7.83;6.53;;;16.80;99.90;;;;;;5064314;28;20220;-73
2021/10/20 07:31:57;;;;;;;6.63;5.93;;;16.90;99.90;;;;;;5058580;28;20662;-73
2021/10/20 07:34:24;;;;;;;7.07;6.37;;;16.90;99.90;;;;;;5046810;28;20222;-73
2021/10/20 07:36:52;;;;;;;7.20;6.50;;;16.90;99.90;;;;;;5048499;28;20198;-72
2021/10/20 07:39:19;;;;;;;8.33;7.17;;;16.90;99.90;;;;;;5052712;28;20210;-72
2021/10/20 07:41:48;;;;;;;9.17;7.03;;;16.90;99.90;;;;;;5046962;28;20223;-73
2021/10/20 07:44:16;;;;;;;9.87;7.27;;;17.00;99.90;;;;;;5046008;28;20655;-72
2021/10/20 07:46:43;;;;;;;8.50;7.07;;;17.00;99.90;;;;;;5039210;28;20202;-72
2021/10/20 07:49:10;;;;;;;11.50;7.97;;;17.00;99.90;;;;;;5047863;28;20194;-72
2021/10/20 07:51:38;;;;;;;7.50;6.53;;;17.10;99.90;;;;;;5038014;28;20234;-73
2021/10/20 07:54:05;;;;;;;6.80;6.10;;;17.10;99.90;;;;;;5033401;28;20289;-72
2021/10/20 07:56:33;;;;;;;6.63;5.87;;;17.10;99.90;;;;;;5044093;28;20309;-73
2021/10/20 07:59:02;;;;;;;6.50;5.80;;;17.20;99.90;;;;;;5037683;28;20302;-73
2021/10/20 08:01:29;;;;;;;5.80;5.20;;;17.30;99.90;;;;;;5041884;28;20192;-72
2021/10/20 08:03:56;;;;;;;6.32;5.57;;;17.40;99.90;;;;;;5033617;28;20694;-73
2021/10/20 08:06:23;;;;;;;7.15;5.90;;;17.40;99.90;;;;;;5039555;28;21028;-72
2021/10/20 08:08:50;;;;;;;6.63;5.55;;;17.50;99.90;;;;;;5038295;28;20436;-72
2021/10/20 08:11:17;;;;;;;5.93;5.40;;;17.50;99.90;;;;;;5041591;28;20201;-73
2021/10/20 08:13:44;;;;;;;9.07;6.80;;;17.60;99.90;;;;;;5034624;28;20266;-72
2021/10/20 08:16:12;;;;;;;8.50;5.78;;;17.60;99.90;;;;;;5045013;28;20221;-72
2021/10/20 08:18:39;;;;;;;6.00;5.40;;;17.60;99.90;;;;;;5042865;28;20204;-73
2021/10/20 08:21:07;;;;;;;6.57;5.88;;;17.70;99.90;;;;;;5040311;28;20712;-72
2021/10/20 08:23:34;;;;;;;8.30;6.20;;;17.70;99.90;;;;;;5043250;28;20204;-72
2021/10/20 08:26:01;;;;;;;7.07;6.30;;;17.80;99.90;;;;;;5043695;28;20204;-71
2021/10/20 08:28:28;;;;;;;7.00;6.07;;;17.80;99.90;;;;;;5030487;28;20201;-72
2021/10/20 08:30:55;;;;;;;5.45;4.95;;;17.80;99.90;;;;;;5039815;28;20294;-73
2021/10/20 08:33:24;;;;;;;5.60;5.10;;;17.90;99.90;;;;;;5041760;28;20315;-73
2021/10/20 08:35:51;;;;;;;5.50;5.00;;;18.00;99.90;;;;;;5037320;28;20710;-71
2021/10/20 08:38:18;;;;;;;9.00;7.20;;;18.10;99.90;;;;;;5040006;28;20212;-71
2021/10/20 08:40:46;;;;;;;6.22;5.63;;;18.20;99.90;;;;;;5037027;28;20238;-71
2021/10/20 08:43:15;;;;;;;6.38;5.43;;;18.20;99.90;;;;;;5041383;28;20198;-71
2021/10/20 08:45:42;;;;;;;6.03;5.43;;;18.30;99.90;;;;;;5040222;28;20197;-72
2021/10/20 08:48:09;;;;;;;8.70;5.65;;;18.40;99.90;;;;;;5035664;28;20213;-72
2021/10/20 08:50:39;;;;;;;6.03;5.43;;;18.40;99.90;;;;;;5037128;28;20217;-72
2021/10/20 08:53:07;;;;;;;6.05;5.53;;;18.50;99.90;;;;;;5048383;28;20235;-73
2021/10/20 08:55:34;;;;;;;5.82;5.25;;;18.50;99.90;;;;;;5059150;28;20214;-74
2021/10/20 08:58:02;;;;;;;5.90;5.30;;;18.50;99.90;;;;;;5045136;28;20331;-71
2021/10/20 09:00:29;;;;;;;5.25;4.82;;;18.50;99.90;;;;;;5059824;28;20207;-73
2021/10/20 09:02:56;;;;;;;6.28;5.70;;;18.60;99.90;;;;;;5053849;28;20658;-72
2021/10/20 09:05:25;;;;;;;5.68;5.18;;;18.70;99.90;;;;;;5038261;28;20540;-72
2021/10/20 09:07:55;;;;;;;6.05;5.22;;;18.90;99.90;;;;;;5063434;28;20200;-71
2021/10/20 09:10:23;;;;;;;10.40;6.45;;;19.10;99.90;;;;;;5037102;28;20194;-72
2021/10/20 09:12:50;;;;;;;6.18;5.57;;;19.30;99.90;;;;;;5044421;28;20203;-73
2021/10/20 09:15:20;;;;;;;5.82;5.32;;;19.30;99.90;;;;;;5064007;28;20288;-72
2021/10/20 09:17:50;;;;;;;5.13;4.72;;;19.40;99.90;;;;;;5040465;28;20968;-73
2021/10/20 09:20:20;;;;;;;5.65;5.15;;;19.40;99.90;;;;;;5059938;28;20204;-74
2021/10/20 09:22:57;;;;;;;5.60;5.10;;;19.60;99.90;;;;;;5039794;28;20208;-72
2021/10/20 09:25:24;;;;;;;5.10;4.63;;;19.70;99.90;;;;;;5058224;28;20208;-72
2021/10/20 09:27:52;;;;;;;4.78;4.38;;;20.00;99.90;;;;;;5041674;28;20297;-72
2021/10/20 09:30:20;;;;;;;5.15;4.65;;;20.30;99.90;;;;;;5058752;28;20193;-72
2021/10/20 09:32:50;;;;;;;4.65;4.22;;;20.60;99.90;;;;;;5056719;28;20201;-70
2021/10/20 09:35:17;;;;;;;5.68;4.57;;;20.90;99.90;;;;;;5044885;28;20217;-72
2021/10/20 09:37:44;;;;;;;5.65;4.45;;;21.00;99.90;;;;;;5059542;28;20259;-71
2021/10/20 09:40:15;;;;;;;4.45;4.15;;;21.10;99.90;;;;;;5051247;28;20793;-71
2021/10/20 09:42:46;;;;;;;3.97;3.60;;;21.30;99.90;;;;;;5059568;28;20277;-71
2021/10/20 09:45:15;;;;;;;3.70;3.40;;;21.60;99.90;;;;;;5055482;28;20867;-72
2021/10/20 09:47:43;;;;;;;4.47;4.00;;;22.10;99.90;;;;;;5037521;28;20201;-72
2021/10/20 09:50:12;;;;;;;4.53;4.22;;;22.40;99.90;;;;;;5062235;28;20607;-72
2021/10/20 09:52:47;;;;;;;3.60;3.30;;;22.80;99.90;;;;;;5056454;28;20487;-72
2021/10/20 09:55:17;;;;;;;3.58;3.38;;;23.10;99.90;;;;;;5061889;28;20622;-72
2021/10/20 09:57:45;;;;;;;4.20;3.75;;;23.60;99.90;;;;;;5043051;28;20209;-72
2021/10/20 10:00:12;;;;;;;3.40;3.10;;;24.10;99.90;;;;;;5045025;28;20203;-71
2021/10/20 10:02:39;;;;;;;4.27;3.13;;;24.50;99.90;;;;;;5045070;28;20442;-71
2021/10/20 10:05:08;;;;;;;4.47;3.70;;;25.00;99.90;;;;;;5038559;28;20447;-71
2021/10/20 10:07:35;;;;;;;3.60;3.30;;;25.20;98.20;;;;;;5063505;28;20202;-72
2021/10/20 10:10:03;;;;;;;3.05;2.83;;;25.30;97.70;;;;;;5059579;28;20707;-72
2021/10/20 10:12:33;;;;;;;3.88;3.25;;;25.50;97.50;;;;;;5042909;28;20216;-71
2021/10/20 10:15:10;;;;;;;3.50;3.00;;;25.70;96.70;;;;;;5044310;28;20217;-71
2021/10/20 10:17:40;;;;;;;2.90;2.70;;;25.90;96.00;;;;;;5061775;28;20201;-72
2021/10/20 10:20:09;;;;;;;4.25;3.47;;;26.10;95.60;;;;;;5042993;28;20207;-73
2021/10/20 10:22:49;;;;;;;3.78;3.47;;;26.50;94.50;;;;;;5041683;28;20224;-72
2021/10/20 10:25:17;;;;;;;3.67;3.15;;;26.70;93.50;;;;;;5036435;28;20202;-72
2021/10/20 10:28:21;;;;;;;3.28;3.03;;;27.10;92.70;;;;;;5058126;28;20202;-73
2021/10/20 10:30:50;;;;;;;3.58;3.38;;;27.50;92.00;;;;;;5055392;28;20197;-72
2021/10/20 10:33:20;;;;;;;4.00;2.53;;;27.90;90.20;;;;;;5061297;28;20613;-74
2021/10/20 10:36:05;;;;;;;3.80;3.40;;;28.10;89.20;;;;;;5058107;28;20628;-72
2021/10/20 10:38:37;;;;;;;3.47;3.00;;;28.30;86.00;;;;;;5059352;28;20197;-72
2021/10/20 10:41:23;;;;;;;3.33;3.13;;;28.50;83.90;;;;;;5060405;28;20201;-72
2021/10/20 10:44:25;;;;;;;3.88;3.58;;;28.50;82.00;;;;;;5053964;28;20201;-73
2021/10/20 10:47:05;;;;;;;3.92;3.50;;;28.40;80.60;;;;;;4973472;28;20680;-73
2021/10/20 10:49:35;;;;;;;3.53;3.22;;;28.20;79.60;;;;;;4978520;28;20207;-72
2021/10/20 10:52:14;;;;;;;3.50;3.20;;;27.90;78.20;;;;;;4978645;28;20216;-71
2021/10/20 10:54:52;;;;;;;3.72;3.42;;;27.70;78.40;;;;;;4964614;28;20318;-71
2021/10/20 10:57:19;;;;;;;3.22;3.03;;;27.70;77.70;;;;;;4966167;28;20685;-73
2021/10/20 10:59:55;;;;;;;3.33;3.10;;;27.70;77.10;;;;;;4980496;28;20204;-75
2021/10/20 11:02:40;;;;;;;3.35;3.15;;;27.70;77.70;;;;;;4979683;28;20227;-73
2021/10/20 11:05:09;;;;;;;3.38;3.13;;;27.80;76.90;;;;;;4956773;28;20207;-73
2021/10/20 11:07:36;;;;;;;3.22;3.03;;;27.80;76.20;;;;;;4955037;28;20188;-73
2021/10/20 11:10:06;;;;;;;3.28;3.03;;;28.00;75.90;;;;;;4964264;28;20204;-74
2021/10/20 11:12:33;;;;;;;7.95;4.18;;;28.00;75.20;;;;;;4959921;28;20323;-74
2021/10/20 11:15:01;;;;;;;4.18;3.70;;;27.90;73.30;;;;;;4981785;28;20212;-74
2021/10/20 11:17:28;;;;;;;3.60;3.30;;;27.40;73.40;;;;;;5008515;28;20664;-73
2021/10/20 11:19:56;;;;;;;7.18;3.67;;;26.90;74.20;;;;;;5043942;28;20196;-74
2021/10/20 11:22:25;;;;;;;9.35;3.40;;;26.50;75.50;;;;;;5046409;28;21387;-74
2021/10/20 11:24:53;;;;;;;5.05;3.83;;;26.20;75.60;;;;;;5046678;28;20196;-72
2021/10/20 11:27:24;;;;;;;3.67;3.25;;;26.00;76.90;;;;;;5061183;28;20700;-71
2021/10/20 11:29:53;;;;;;;4.68;2.95;;;25.70;77.80;;;;;;5055465;28;20807;-71
2021/10/20 11:32:23;;;;;;;3.60;3.25;;;25.50;78.70;;;;;;5042320;28;20197;-72
2021/10/20 11:34:52;;;;;;;3.13;2.92;;;25.30;79.20;;;;;;5050200;28;20201;-73
2021/10/20 11:37:22;;;;;;;4.47;3.75;;;25.10;79.50;;;;;;5031319;28;20644;-72
2021/10/20 11:39:56;;;;;;;3.85;3.53;;;24.90;80.00;;;;;;5062388;28;20209;-71
2021/10/20 11:42:24;;;;;;;4.32;3.28;;;24.70;80.90;;;;;;5065625;28;20685;-73
2021/10/20 11:44:53;;;;;;;5.18;3.10;;;24.50;81.30;;;;;;5044439;28;20193;-72
2021/10/20 11:47:22;;;;;;;3.57;3.27;;;24.40;81.80;;;;;;5043474;28;20438;-73
2021/10/20 11:49:51;;;;;;;3.17;2.97;;;24.20;82.60;;;;;;5056132;28;20198;-73
2021/10/20 11:52:20;;;;;;;4.38;3.33;;;24.10;83.00;;;;;;5047338;28;20211;-72
2021/10/20 11:54:47;;;;;;;3.58;3.28;;;24.00;83.20;;;;;;5047476;28;20636;-73
2021/10/20 11:57:17;;;;;;;6.35;4.38;;;23.90;83.70;;;;;;5045671;28;20249;-73
2021/10/20 11:59:45;;;;;;;3.95;3.55;;;23.80;84.00;;;;;;5062172;28;20437;-71
2021/10/20 12:02:13;;;;;;;3.60;3.30;;;23.60;84.50;;;;;;5042691;28;20201;-73
2021/10/20 12:04:43;;;;;;;5.70;3.60;;;23.50;84.80;;;;;;5047959;28;20685;-71
2021/10/20 12:07:13;;;;;;;8.40;3.90;;;23.30;84.80;;;;;;5048366;28;20203;-72
2021/10/20 12:09:43;;;;;;;4.40;4.00;;;23.10;84.90;;;;;;5060246;28;20190;-72
2021/10/20 12:12:11;;;;;;;6.53;4.38;;;23.00;85.40;;;;;;5057330;28;20564;-73
2021/10/20 12:14:40;;;;;;;3.90;3.60;;;22.80;85.80;;;;;;5034200;28;20228;-73
2021/10/20 12:17:09;;;;;;;4.78;4.28;;;22.70;86.00;;;;;;5053034;28;20574;-72
2021/10/20 12:19:38;;;;;;;4.28;3.88;;;22.60;86.30;;;;;;5055072;28;20668;-72
2021/10/20 12:22:09;;;;;;;4.50;4.10;;;22.50;86.80;;;;;;5044370;28;20251;-72
2021/10/20 12:24:38;;;;;;;4.95;3.97;;;22.50;87.00;;;;;;5052208;28;20535;-73
2021/10/20 12:27:07;;;;;;;4.00;3.67;;;22.40;87.30;;;;;;5044736;28;20700;-73
2021/10/20 12:29:41;;;;;;;4.65;3.40;;;22.40;87.40;;;;;;5044824;28;20676;-72
2021/10/20 12:32:13;;;;;;;3.55;3.25;;;22.30;87.50;;;;;;5036843;28;20449;-72
2021/10/20 12:34:53;;;;;;;4.93;4.18;;;22.30;88.10;;;;;;5063482;28;20426;-73
2021/10/20 12:37:25;;;;;;;3.83;3.50;;;22.50;88.00;;;;;;5048845;28;20297;-72
2021/10/20 12:39:53;;;;;;;4.07;3.75;;;22.40;87.90;;;;;;5048248;28;20435;-73
2021/10/20 12:42:21;;;;;;;4.55;4.13;;;22.50;87.90;;;;;;5059726;28;20699;-73
2021/10/20 12:44:49;;;;;;;4.88;4.40;;;22.40;87.90;;;;;;5065724;28;20740;-73
2021/10/20 12:47:20;;;;;;;5.45;3.60;;;22.30;88.00;;;;;;5047229;28;20193;-72
2021/10/20 12:49:51;;;;;;;3.72;3.42;;;22.10;88.20;;;;;;5051561;28;20681;-73
2021/10/20 12:52:20;;;;;;;4.63;4.22;;;22.10;88.60;;;;;;5067763;28;20223;-72